sensor_id;sensor_type;location;lat;lon;timestamp;pressure;altitude;pressure_sealevel;temperature;humidity
64544;BME280;50936;51.660;5.616;2023-02-03T00:02:12;102123.88;;;8.26;100.00
64544;BME280;50936;51.660;5.616;2023-02-03T00:04:39;102131.97;;;8.26;100.00
64544;BME280;50936;51.660;5.616;2023-02-03T00:07:05;102123.00;;;8.25;100.00
64544;BME280;50936;51.660;5.616;2023-02-03T00:09:37;102116.75;;;8.25;100.00
64544;BME280;50936;51.660;5.616;2023-02-03T00:12:04;102110.50;;;8.24;100.00
64544;BME280;50936;51.660;5.616;2023-02-03T00:14:32;102106.00;;;8.25;100.00
64544;BME280;50936;51.660;5.616;2023-02-03T00:16:59;102117.63;;;8.25;100.00
64544;BME280;50936;51.660;5.616;2023-02-03T00:19:25;102129.25;;;8.26;100.00
64544;BME280;50936;51.660;5.616;2023-02-03T00:21:52;102140.03;;;8.26;100.00
64544;BME280;50936;51.660;5.616;2023-02-03T00:24:19;102141.81;;;8.27;100.00
64544;BME280;50936;51.660;5.616;2023-02-03T00:26:48;102148.94;;;8.28;100.00
64544;BME280;50936;51.660;5.616;2023-02-03T00:29:15;102156.06;;;8.29;100.00
64544;BME280;50936;51.660;5.616;2023-02-03T00:31:44;102159.56;;;8.31;100.00
64544;BME280;50936;51.660;5.616;2023-02-03T00:34:11;102154.09;;;8.34;100.00
64544;BME280;50936;51.660;5.616;2023-02-03T00:36:38;102154.09;;;8.34;100.00
64544;BME280;50936;51.660;5.616;2023-02-03T00:39:08;102159.34;;;8.37;100.00
64544;BME280;50936;51.660;5.616;2023-02-03T00:41:35;102153.97;;;8.37;100.00
64544;BME280;50936;51.660;5.616;2023-02-03T00:44:02;102161.09;;;8.38;100.00
64544;BME280;50936;51.660;5.616;2023-02-03T00:46:28;102148.50;;;8.39;100.00
64544;BME280;50936;51.660;5.616;2023-02-03T00:48:55;102152.97;;;8.40;100.00
64544;BME280;50936;51.660;5.616;2023-02-03T00:51:22;102152.09;;;8.39;100.00
64544;BME280;50936;51.660;5.616;2023-02-03T00:53:49;102153.03;;;8.38;100.00
64544;BME280;50936;51.660;5.616;2023-02-03T00:56:16;102155.72;;;8.38;100.00
64544;BME280;50936;51.660;5.616;2023-02-03T00:58:43;102154.84;;;8.38;100.00
64544;BME280;50936;51.660;5.616;2023-02-03T01:01:10;102163.78;;;8.38;100.00
64544;BME280;50936;51.660;5.616;2023-02-03T01:03:37;102170.94;;;8.39;100.00
64544;BME280;50936;51.660;5.616;2023-02-03T01:06:23;102166.47;;;8.38;100.00
64544;BME280;50936;51.660;5.616;2023-02-03T01:08:50;102176.31;;;8.39;100.00
64544;BME280;50936;51.660;5.616;2023-02-03T01:11:19;102176.22;;;8.42;100.00
64544;BME280;50936;51.660;5.616;2023-02-03T01:13:49;102177.06;;;8.44;100.00
64544;BME280;50936;51.660;5.616;2023-02-03T01:16:18;102173.41;;;8.45;100.00
64544;BME280;50936;51.660;5.616;2023-02-03T01:18:47;102175.19;;;8.46;100.00
64544;BME280;50936;51.660;5.616;2023-02-03T01:21:18;102163.47;;;8.47;100.00
64544;BME280;50936;51.660;5.616;2023-02-03T01:23:46;102157.16;;;8.48;100.00
64544;BME280;50936;51.660;5.616;2023-02-03T01:26:16;102165.22;;;8.48;100.00
64544;BME280;50936;51.660;5.616;2023-02-03T01:31:31;102153.50;;;8.50;100.00
64544;BME280;50936;51.660;5.616;2023-02-03T01:34:01;102150.00;;;8.47;100.00
64544;BME280;50936;51.660;5.616;2023-02-03T01:36:30;102155.38;;;8.47;100.00
64544;BME280;50936;51.660;5.616;2023-02-03T01:39:01;102159.03;;;8.46;100.00
64544;BME280;50936;51.660;5.616;2023-02-03T01:41:31;102163.47;;;8.47;100.00
64544;BME280;50936;51.660;5.616;2023-02-03T01:44:01;102158.88;;;8.50;100.00
64544;BME280;50936;51.660;5.616;2023-02-03T01:47:10;102150.81;;;8.50;100.00
64544;BME280;50936;51.660;5.616;2023-02-03T01:49:41;102137.34;;;8.50;100.00
64544;BME280;50936;51.660;5.616;2023-02-03T01:52:14;102144.59;;;8.47;100.00
64544;BME280;50936;51.660;5.616;2023-02-03T01:54:43;102148.13;;;8.50;100.00
64544;BME280;50936;51.660;5.616;2023-02-03T01:57:30;102133.72;;;8.51;100.00
64544;BME280;50936;51.660;5.616;2023-02-03T02:00:05;102122.00;;;8.52;100.00
64544;BME280;50936;51.660;5.616;2023-02-03T02:02:43;102113.91;;;8.52;100.00
64544;BME280;50936;51.660;5.616;2023-02-03T02:05:24;102097.75;;;8.52;100.00
64544;BME280;50936;51.660;5.616;2023-02-03T02:08:00;102092.38;;;8.52;100.00
64544;BME280;50936;51.660;5.616;2023-02-03T02:10:30;102094.16;;;8.53;100.00
64544;BME280;50936;51.660;5.616;2023-02-03T02:13:00;102100.47;;;8.52;100.00
64544;BME280;50936;51.660;5.616;2023-02-03T02:15:42;102108.53;;;8.52;100.00
64544;BME280;50936;51.660;5.616;2023-02-03T02:18:35;102111.22;;;8.52;100.00
64544;BME280;50936;51.660;5.616;2023-02-03T02:27:29;102113.91;;;8.52;100.00
64544;BME280;50936;51.660;5.616;2023-02-03T02:33:14;102109.44;;;8.52;100.00
64544;BME280;50936;51.660;5.616;2023-02-03T02:41:19;102118.38;;;8.53;100.00
64544;BME280;50936;51.660;5.616;2023-02-03T02:44:00;102102.22;;;8.53;100.00
64544;BME280;50936;51.660;5.616;2023-02-03T02:46:46;102106.69;;;8.54;100.00
64544;BME280;50936;51.660;5.616;2023-02-03T02:49:28;102092.25;;;8.55;100.00
64544;BME280;50936;51.660;5.616;2023-02-03T02:52:17;102103.03;;;8.55;100.00
64544;BME280;50936;51.660;5.616;2023-02-03T02:54:51;102102.09;;;8.56;100.00
64544;BME280;50936;51.660;5.616;2023-02-03T02:57:25;102106.53;;;8.57;100.00
64544;BME280;50936;51.660;5.616;2023-02-03T02:59:53;102106.53;;;8.57;100.00
64544;BME280;50936;51.660;5.616;2023-02-03T03:02:30;102104.66;;;8.59;100.00
64544;BME280;50936;51.660;5.616;2023-02-03T03:05:03;102113.69;;;8.58;100.00
64544;BME280;50936;51.660;5.616;2023-02-03T03:07:48;102115.44;;;8.59;100.00
64544;BME280;50936;51.660;5.616;2023-02-03T03:10:24;102107.44;;;8.57;100.00
64544;BME280;50936;51.660;5.616;2023-02-03T03:13:02;102104.81;;;8.56;100.00
64544;BME280;50936;51.660;5.616;2023-02-03T03:15:33;102096.78;;;8.54;100.00
64544;BME280;50936;51.660;5.616;2023-02-03T03:18:08;102075.19;;;8.56;100.00
64544;BME280;50936;51.660;5.616;2023-02-03T03:20:46;102066.09;;;8.58;100.00
64544;BME280;50936;51.660;5.616;2023-02-03T03:23:27;102059.72;;;8.61;100.00
64544;BME280;50936;51.660;5.616;2023-02-03T03:26:29;102066.84;;;8.62;100.00
64544;BME280;50936;51.660;5.616;2023-02-03T03:31:46;102066.84;;;8.62;100.00
64544;BME280;50936;51.660;5.616;2023-02-03T03:34:15;102057.94;;;8.60;100.00
64544;BME280;50936;51.660;5.616;2023-02-03T03:42:34;102059.44;;;8.67;100.00
64544;BME280;50936;51.660;5.616;2023-02-03T03:45:10;102077.34;;;8.68;100.00
64544;BME280;50936;51.660;5.616;2023-02-03T03:50:44;102094.19;;;8.73;100.00
64544;BME280;50936;51.660;5.616;2023-02-03T03:53:17;102098.50;;;8.77;100.00
64544;BME280;50936;51.660;5.616;2023-02-03T03:55:49;102100.28;;;8.78;100.00
64544;BME280;50936;51.660;5.616;2023-02-03T03:58:24;102099.25;;;8.81;100.00
64544;BME280;50936;51.660;5.616;2023-02-03T04:00:58;102098.16;;;8.86;100.00
64544;BME280;50936;51.660;5.616;2023-02-03T04:03:32;102092.75;;;8.86;100.00
64544;BME280;50936;51.660;5.616;2023-02-03T04:06:07;102110.66;;;8.88;100.00
64544;BME280;50936;51.660;5.616;2023-02-03T04:08:34;102104.25;;;8.90;100.00
64544;BME280;50936;51.660;5.616;2023-02-03T04:11:01;102101.66;;;8.89;100.00
64544;BME280;50936;51.660;5.616;2023-02-03T04:13:27;102112.28;;;8.92;100.00
64544;BME280;50936;51.660;5.616;2023-02-03T04:15:54;102117.53;;;8.95;100.00
64544;BME280;50936;51.660;5.616;2023-02-03T04:18:21;102110.25;;;8.97;100.00
64544;BME280;50936;51.660;5.616;2023-02-03T04:20:48;102104.81;;;8.98;100.00
64544;BME280;50936;51.660;5.616;2023-02-03T04:23:15;102113.78;;;8.99;100.00
64544;BME280;50936;51.660;5.616;2023-02-03T04:25:42;102108.25;;;9.02;100.00
64544;BME280;50936;51.660;5.616;2023-02-03T04:28:09;102119.03;;;9.02;100.00
64544;BME280;50936;51.660;5.616;2023-02-03T04:30:36;102124.44;;;9.02;100.00
64544;BME280;50936;51.660;5.616;2023-02-03T04:33:03;102124.44;;;9.02;100.00
64544;BME280;50936;51.660;5.616;2023-02-03T04:35:30;102112.72;;;9.03;100.00
64544;BME280;50936;51.660;5.616;2023-02-03T04:37:57;102112.72;;;9.03;100.00
64544;BME280;50936;51.660;5.616;2023-02-03T04:40:23;102108.25;;;9.02;100.00
64544;BME280;50936;51.660;5.616;2023-02-03T04:42:51;102109.19;;;9.01;100.00
64544;BME280;50936;51.660;5.616;2023-02-03T04:45:18;102111.81;;;9.02;100.00
64544;BME280;50936;51.660;5.616;2023-02-03T04:47:50;102100.97;;;9.04;100.00
64544;BME280;50936;51.660;5.616;2023-02-03T04:50:20;102100.97;;;9.04;100.00
64544;BME280;50936;51.660;5.616;2023-02-03T04:52:47;102076.66;;;9.05;100.00
64544;BME280;50936;51.660;5.616;2023-02-03T04:55:13;102082.13;;;9.04;100.00
64544;BME280;50936;51.660;5.616;2023-02-03T04:57:40;102079.41;;;9.04;100.00
64544;BME280;50936;51.660;5.616;2023-02-03T05:00:08;102082.19;;;9.02;100.00
64544;BME280;50936;51.660;5.616;2023-02-03T05:02:36;102063.25;;;9.04;100.00
64544;BME280;50936;51.660;5.616;2023-02-03T05:05:03;102066.91;;;9.03;100.00
64544;BME280;50936;51.660;5.616;2023-02-03T05:07:30;102067.72;;;9.05;100.00
64544;BME280;50936;51.660;5.616;2023-02-03T05:09:57;102086.41;;;9.08;100.00
64544;BME280;50936;51.660;5.616;2023-02-03T05:12:23;102083.78;;;9.06;100.00
64544;BME280;50936;51.660;5.616;2023-02-03T05:14:50;102087.44;;;9.05;100.00
64544;BME280;50936;51.660;5.616;2023-02-03T05:17:17;102079.41;;;9.04;100.00
64544;BME280;50936;51.660;5.616;2023-02-03T05:19:44;102078.41;;;9.06;100.00
64544;BME280;50936;51.660;5.616;2023-02-03T05:22:11;102083.66;;;9.10;100.00
64544;BME280;50936;51.660;5.616;2023-02-03T05:24:38;102084.53;;;9.10;100.00
64544;BME280;50936;51.660;5.616;2023-02-03T05:27:04;102085.50;;;9.09;100.00
64544;BME280;50936;51.660;5.616;2023-02-03T05:29:31;102098.97;;;9.09;100.00
64544;BME280;50936;51.660;5.616;2023-02-03T05:31:58;102084.53;;;9.10;100.00
64544;BME280;50936;51.660;5.616;2023-02-03T05:34:25;102078.28;;;9.10;100.00
64544;BME280;50936;51.660;5.616;2023-02-03T05:36:52;102093.56;;;9.09;100.00
64544;BME280;50936;51.660;5.616;2023-02-03T05:39:19;102092.63;;;9.10;100.00
64544;BME280;50936;51.660;5.616;2023-02-03T05:41:45;102098.00;;;9.10;100.00
64544;BME280;50936;51.660;5.616;2023-02-03T05:44:24;102086.31;;;9.11;100.00
64544;BME280;50936;51.660;5.616;2023-02-03T05:46:54;102094.38;;;9.11;100.00
64544;BME280;50936;51.660;5.616;2023-02-03T05:49:24;102104.25;;;9.12;100.00
64544;BME280;50936;51.660;5.616;2023-02-03T05:51:52;102100.69;;;9.10;100.00
64544;BME280;50936;51.660;5.616;2023-02-03T05:54:20;102105.22;;;9.10;100.00
64544;BME280;50936;51.660;5.616;2023-02-03T05:56:49;102108.88;;;9.09;100.00
64544;BME280;50936;51.660;5.616;2023-02-03T05:59:18;102118.75;;;9.08;100.00
64544;BME280;50936;51.660;5.616;2023-02-03T06:01:45;102108.03;;;9.06;100.00
64544;BME280;50936;51.660;5.616;2023-02-03T06:04:12;102108.13;;;9.05;100.00
64544;BME280;50936;51.660;5.616;2023-02-03T06:06:39;102106.38;;;9.04;100.00
64544;BME280;50936;51.660;5.616;2023-02-03T06:09:06;102096.47;;;9.04;100.00
64544;BME280;50936;51.660;5.616;2023-02-03T06:11:34;102104.63;;;9.03;100.00
64544;BME280;50936;51.660;5.616;2023-02-03T06:14:02;102100.06;;;9.05;100.00
64544;BME280;50936;51.660;5.616;2023-02-03T06:16:29;102102.75;;;9.05;100.00
64544;BME280;50936;51.660;5.616;2023-02-03T06:18:56;102112.72;;;9.03;100.00
64544;BME280;50936;51.660;5.616;2023-02-03T06:21:27;102101.09;;;9.01;100.00
64544;BME280;50936;51.660;5.616;2023-02-03T06:23:54;102093.97;;;9.00;100.00
64544;BME280;50936;51.660;5.616;2023-02-03T06:26:22;102085.09;;;8.98;100.00
64544;BME280;50936;51.660;5.616;2023-02-03T06:28:50;102083.31;;;8.97;100.00
64544;BME280;50936;51.660;5.616;2023-02-03T06:31:17;102088.72;;;8.97;100.00
64544;BME280;50936;51.660;5.616;2023-02-03T06:33:44;102086.97;;;8.96;100.00
64544;BME280;50936;51.660;5.616;2023-02-03T06:36:11;102089.72;;;8.94;100.00
64544;BME280;50936;51.660;5.616;2023-02-03T06:38:38;102101.31;;;8.96;100.00
64544;BME280;50936;51.660;5.616;2023-02-03T06:41:05;102094.97;;;8.97;100.00
64544;BME280;50936;51.660;5.616;2023-02-03T06:43:32;102116.53;;;8.97;100.00
64544;BME280;50936;51.660;5.616;2023-02-03T06:46:00;102093.16;;;8.98;100.00
64544;BME280;50936;51.660;5.616;2023-02-03T06:48:27;102104.88;;;8.97;100.00
64544;BME280;50936;51.660;5.616;2023-02-03T06:50:54;102099.59;;;8.94;100.00
64544;BME280;50936;51.660;5.616;2023-02-03T06:53:21;102094.22;;;8.94;100.00
64544;BME280;50936;51.660;5.616;2023-02-03T06:55:49;102091.47;;;8.95;100.00
64544;BME280;50936;51.660;5.616;2023-02-03T06:58:16;102104.88;;;8.97;100.00
64544;BME280;50936;51.660;5.616;2023-02-03T07:00:43;102099.50;;;8.97;100.00
64544;BME280;50936;51.660;5.616;2023-02-03T07:03:10;102117.47;;;8.96;100.00
64544;BME280;50936;51.660;5.616;2023-02-03T07:05:37;102122.94;;;8.95;100.00
64544;BME280;50936;51.660;5.616;2023-02-03T07:08:06;102126.66;;;8.92;100.00
64544;BME280;50936;51.660;5.616;2023-02-03T07:10:33;102114.16;;;8.90;100.00
64544;BME280;50936;51.660;5.616;2023-02-03T07:13:04;102134.84;;;8.89;100.00
64544;BME280;50936;51.660;5.616;2023-02-03T07:15:33;102125.91;;;8.89;100.00
64544;BME280;50936;51.660;5.616;2023-02-03T07:18:01;102137.59;;;8.88;100.00
64544;BME280;50936;51.660;5.616;2023-02-03T07:20:28;102143.03;;;8.86;100.00
64544;BME280;50936;51.660;5.616;2023-02-03T07:22:57;102135.88;;;8.86;100.00
64544;BME280;50936;51.660;5.616;2023-02-03T07:25:24;102125.09;;;8.86;100.00
64544;BME280;50936;51.660;5.616;2023-02-03T07:27:52;102119.53;;;8.90;100.00
64544;BME280;50936;51.660;5.616;2023-02-03T07:30:19;102123.09;;;8.90;100.00
64544;BME280;50936;51.660;5.616;2023-02-03T07:32:50;102111.41;;;8.91;100.00
64544;BME280;50936;51.660;5.616;2023-02-03T07:35:18;102124.81;;;8.93;100.00
64544;BME280;50936;51.660;5.616;2023-02-03T07:37:45;102123.06;;;8.92;100.00
64544;BME280;50936;51.660;5.616;2023-02-03T07:40:13;102128.31;;;8.95;100.00
64544;BME280;50936;51.660;5.616;2023-02-03T07:42:42;102135.47;;;8.96;100.00
64544;BME280;50936;51.660;5.616;2023-02-03T07:45:15;102125.50;;;8.98;100.00
64544;BME280;50936;51.660;5.616;2023-02-03T07:47:43;102120.94;;;9.00;100.00
64544;BME280;50936;51.660;5.616;2023-02-03T07:50:10;102135.25;;;9.00;100.00
64544;BME280;50936;51.660;5.616;2023-02-03T07:52:38;102132.50;;;9.02;100.00
64544;BME280;50936;51.660;5.616;2023-02-03T07:55:05;102127.94;;;9.04;100.00
64544;BME280;50936;51.660;5.616;2023-02-03T07:57:33;102156.50;;;9.08;100.00
64544;BME280;50936;51.660;5.616;2023-02-03T08:00:00;102154.75;;;9.07;100.00
64544;BME280;50936;51.660;5.616;2023-02-03T08:02:37;102140.47;;;9.05;100.00
64544;BME280;50936;51.660;5.616;2023-02-03T08:05:05;102149.50;;;9.04;100.00
64544;BME280;50936;51.660;5.616;2023-02-03T08:07:33;102172.94;;;9.02;100.00
64544;BME280;50936;51.660;5.616;2023-02-03T08:10:00;102162.16;;;9.02;100.00
64544;BME280;50936;51.660;5.616;2023-02-03T08:12:27;102180.09;;;9.03;100.00
64544;BME280;50936;51.660;5.616;2023-02-03T08:14:53;102161.28;;;9.01;100.00
64544;BME280;50936;51.660;5.616;2023-02-03T08:17:20;102162.28;;;8.99;100.00
64544;BME280;50936;51.660;5.616;2023-02-03T08:19:47;102171.31;;;8.98;100.00
64544;BME280;50936;51.660;5.616;2023-02-03T08:22:14;102170.41;;;8.97;100.00
64544;BME280;50936;51.660;5.616;2023-02-03T08:24:43;102166.91;;;8.95;100.00
64544;BME280;50936;51.660;5.616;2023-02-03T08:27:14;102169.56;;;8.97;100.00
64544;BME280;50936;51.660;5.616;2023-02-03T08:29:43;102176.72;;;8.98;100.00
64544;BME280;50936;51.660;5.616;2023-02-03T08:32:16;102171.31;;;8.98;100.00
64544;BME280;50936;51.660;5.616;2023-02-03T08:34:46;102187.44;;;8.99;100.00
64544;BME280;50936;51.660;5.616;2023-02-03T08:37:17;102198.25;;;8.98;100.00
64544;BME280;50936;51.660;5.616;2023-02-03T08:39:48;102198.25;;;8.98;100.00
64544;BME280;50936;51.660;5.616;2023-02-03T08:42:15;102197.25;;;9.00;100.00
64544;BME280;50936;51.660;5.616;2023-02-03T08:44:42;102196.44;;;8.98;100.00
64544;BME280;50936;51.660;5.616;2023-02-03T08:47:10;102200.00;;;8.99;100.00
64544;BME280;50936;51.660;5.616;2023-02-03T08:49:37;102192.72;;;9.01;100.00
64544;BME280;50936;51.660;5.616;2023-02-03T08:52:10;102194.50;;;9.02;100.00
64544;BME280;50936;51.660;5.616;2023-02-03T08:54:38;102191.84;;;9.00;100.00
64544;BME280;50936;51.660;5.616;2023-02-03T08:57:06;102194.59;;;8.99;100.00
64544;BME280;50936;51.660;5.616;2023-02-03T08:59:34;102185.59;;;9.00;100.00
64544;BME280;50936;51.660;5.616;2023-02-03T09:02:04;102197.25;;;9.00;100.00
64544;BME280;50936;51.660;5.616;2023-02-03T09:04:33;102187.22;;;9.04;100.00
64544;BME280;50936;51.660;5.616;2023-02-03T09:07:01;102198.81;;;9.06;100.00
64544;BME280;50936;51.660;5.616;2023-02-03T09:09:30;102178.06;;;9.08;100.00
64544;BME280;50936;51.660;5.616;2023-02-03T09:11:57;102199.50;;;9.11;100.00
64544;BME280;50936;51.660;5.616;2023-02-03T09:14:31;102208.41;;;9.13;100.00
64544;BME280;50936;51.660;5.616;2023-02-03T09:17:00;102210.09;;;9.16;100.00
64544;BME280;50936;51.660;5.616;2023-02-03T09:19:29;102222.63;;;9.17;100.00
64544;BME280;50936;51.660;5.616;2023-02-03T09:21:59;102217.28;;;9.15;100.00
64544;BME280;50936;51.660;5.616;2023-02-03T09:24:27;102222.69;;;9.15;100.00
64544;BME280;50936;51.660;5.616;2023-02-03T09:26:54;102232.34;;;9.21;100.00
64544;BME280;50936;51.660;5.616;2023-02-03T09:29:21;102232.47;;;9.18;100.00
64544;BME280;50936;51.660;5.616;2023-02-03T09:31:49;102233.34;;;9.18;100.00
64544;BME280;50936;51.660;5.616;2023-02-03T09:34:19;102250.44;;;9.17;100.00
64544;BME280;50936;51.660;5.616;2023-02-03T09:36:47;102250.38;;;9.19;100.00
64544;BME280;50936;51.660;5.616;2023-02-03T09:39:14;102248.66;;;9.18;100.00
64544;BME280;50936;51.660;5.616;2023-02-03T09:42:12;102231.56;;;9.17;100.00
64544;BME280;50936;51.660;5.616;2023-02-03T09:45:07;102237.06;;;9.16;100.00
64544;BME280;50936;51.660;5.616;2023-02-03T09:47:45;102236.97;;;9.17;100.00
64544;BME280;50936;51.660;5.616;2023-02-03T09:50:31;102218.78;;;9.22;100.00
64544;BME280;50936;51.660;5.616;2023-02-03T09:53:07;102237.66;;;9.22;100.00
64544;BME280;50936;51.660;5.616;2023-02-03T09:55:49;102229.47;;;9.25;100.00
64544;BME280;50936;51.660;5.616;2023-02-03T09:58:18;102211.28;;;9.31;100.00
64544;BME280;50936;51.660;5.616;2023-02-03T10:00:50;102198.72;;;9.30;100.00
64544;BME280;50936;51.660;5.616;2023-02-03T10:20:33;102239.41;;;9.66;100.00
64544;BME280;50936;51.660;5.616;2023-02-03T10:23:01;102240.16;;;9.70;100.00
64544;BME280;50936;51.660;5.616;2023-02-03T10:25:47;102232.69;;;9.76;100.00
64544;BME280;50936;51.660;5.616;2023-02-03T10:28:26;102235.97;;;9.83;100.00
64544;BME280;50936;51.660;5.616;2023-02-03T10:30:59;102229.72;;;9.82;100.00
64544;BME280;50936;51.660;5.616;2023-02-03T10:33:30;102240.50;;;9.82;100.00
64544;BME280;50936;51.660;5.616;2023-02-03T10:36:09;102257.44;;;9.86;100.00
64544;BME280;50936;51.660;5.616;2023-02-03T10:41:23;102242.13;;;9.87;100.00
64544;BME280;50936;51.660;5.616;2023-02-03T10:43:51;102233.09;;;9.88;100.00
64544;BME280;50936;51.660;5.616;2023-02-03T10:46:20;102248.19;;;9.92;100.00
64544;BME280;50936;51.660;5.616;2023-02-03T10:48:54;102244.34;;;9.97;100.00
64544;BME280;50936;51.660;5.616;2023-02-03T10:51:25;102231.66;;;9.99;100.00
64544;BME280;50936;51.660;5.616;2023-02-03T10:53:57;102245.09;;;10.01;100.00
64544;BME280;50936;51.660;5.616;2023-02-03T10:56:29;102248.53;;;10.05;100.00
64544;BME280;50936;51.660;5.616;2023-02-03T10:59:00;102250.34;;;10.04;100.00
64544;BME280;50936;51.660;5.616;2023-02-03T11:01:43;102253.00;;;10.06;100.00
64544;BME280;50936;51.660;5.616;2023-02-03T11:04:30;102256.34;;;10.11;100.00
64544;BME280;50936;51.660;5.616;2023-02-03T11:07:05;102256.50;;;10.08;100.00
64544;BME280;50936;51.660;5.616;2023-02-03T11:09:48;102264.53;;;10.09;100.00
64544;BME280;50936;51.660;5.616;2023-02-03T11:12:19;102264.44;;;10.11;100.00
64544;BME280;50936;51.660;5.616;2023-02-03T11:14:51;102263.63;;;10.09;100.00
64544;BME280;50936;51.660;5.616;2023-02-03T11:17:21;102258.22;;;10.09;100.00
64544;BME280;50936;51.660;5.616;2023-02-03T11:19:54;102267.94;;;10.13;100.00
64544;BME280;50936;51.660;5.616;2023-02-03T11:22:37;102246.88;;;10.21;100.00
64544;BME280;50936;51.660;5.616;2023-02-03T11:25:19;102254.06;;;10.22;100.00
64544;BME280;50936;51.660;5.616;2023-02-03T11:27:54;102246.88;;;10.21;100.00
64544;BME280;50936;51.660;5.616;2023-02-03T11:30:24;102250.38;;;10.23;100.00
64544;BME280;50936;51.660;5.616;2023-02-03T11:32:53;102256.66;;;10.24;100.00
64544;BME280;50936;51.660;5.616;2023-02-03T11:35:26;102252.00;;;10.27;100.00
64544;BME280;50936;51.660;5.616;2023-02-03T11:37:59;102253.66;;;10.31;100.00
64544;BME280;50936;51.660;5.616;2023-02-03T11:40:33;102253.50;;;10.34;100.00
64544;BME280;50936;51.660;5.616;2023-02-03T11:43:14;102248.25;;;10.31;100.00
64544;BME280;50936;51.660;5.616;2023-02-03T11:45:45;102255.50;;;10.29;100.00
64544;BME280;50936;51.660;5.616;2023-02-03T11:48:31;102255.78;;;10.23;100.00
64544;BME280;50936;51.660;5.616;2023-02-03T12:02:29;102261.66;;;10.12;100.00
64544;BME280;50936;51.660;5.616;2023-02-03T12:14:46;102247.31;;;10.12;100.00
64544;BME280;50936;51.660;5.616;2023-02-03T12:23:14;102237.84;;;10.22;100.00
64544;BME280;50936;51.660;5.616;2023-02-03T12:36:49;102262.66;;;10.30;100.00
64544;BME280;50936;51.660;5.616;2023-02-03T12:39:32;102284.16;;;10.33;100.00
64544;BME280;50936;51.660;5.616;2023-02-03T12:42:05;102300.38;;;10.33;100.00
64544;BME280;50936;51.660;5.616;2023-02-03T12:44:49;102287.50;;;10.38;100.00
64544;BME280;50936;51.660;5.616;2023-02-03T12:50:03;102293.59;;;10.44;100.00
64544;BME280;50936;51.660;5.616;2023-02-03T12:53:15;102290.75;;;10.47;100.00
64544;BME280;50936;51.660;5.616;2023-02-03T12:55:54;102288.72;;;10.52;100.00
64544;BME280;50936;51.660;5.616;2023-02-03T12:58:47;102288.44;;;10.58;100.00
64544;BME280;50936;51.660;5.616;2023-02-03T13:01:23;102286.53;;;10.60;100.00
64544;BME280;50936;51.660;5.616;2023-02-03T13:04:07;102282.75;;;10.64;100.00
64544;BME280;50936;51.660;5.616;2023-02-03T13:09:57;102296.47;;;10.78;100.00
64544;BME280;50936;51.660;5.616;2023-02-03T13:12:55;102300.88;;;10.81;100.00
64544;BME280;50936;51.660;5.616;2023-02-03T13:20:55;102307.50;;;10.93;100.00
64544;BME280;50936;51.660;5.616;2023-02-03T13:23:23;102304.66;;;10.96;100.00
64544;BME280;50936;51.660;5.616;2023-02-03T13:31:48;102316.28;;;10.98;100.00
64544;BME280;50936;51.660;5.616;2023-02-03T13:34:42;102312.72;;;10.97;100.00
64544;BME280;50936;51.660;5.616;2023-02-03T13:43:30;102313.72;;;10.95;100.00
64544;BME280;50936;51.660;5.616;2023-02-03T13:46:07;102308.38;;;10.93;100.00
64544;BME280;50936;51.660;5.616;2023-02-03T13:48:48;102321.19;;;10.90;100.00
64544;BME280;50936;51.660;5.616;2023-02-03T13:51:20;102330.31;;;10.87;100.00
64544;BME280;50936;51.660;5.616;2023-02-03T13:53:58;102324.84;;;10.89;100.00
64544;BME280;50936;51.660;5.616;2023-02-03T13:56:29;102323.06;;;10.88;100.00
64544;BME280;50936;51.660;5.616;2023-02-03T14:01:41;102313.28;;;10.85;100.00
64544;BME280;50936;51.660;5.616;2023-02-03T14:07:30;102316.78;;;10.87;100.00
64544;BME280;50936;51.660;5.616;2023-02-03T14:10:20;102330.38;;;10.86;100.00
64544;BME280;50936;51.660;5.616;2023-02-03T14:18:29;102340.50;;;10.62;100.00
64544;BME280;50936;51.660;5.616;2023-02-03T14:21:28;102316.72;;;10.29;100.00
64544;BME280;50936;51.660;5.616;2023-02-03T14:24:08;102321.28;;;10.08;100.00
64544;BME280;50936;51.660;5.616;2023-02-03T14:26:40;102336.09;;;9.97;100.00
64544;BME280;50936;51.660;5.616;2023-02-03T14:29:22;102327.59;;;9.86;100.00
64544;BME280;50936;51.660;5.616;2023-02-03T14:32:02;102330.69;;;9.77;100.00
64544;BME280;50936;51.660;5.616;2023-02-03T14:34:43;102341.81;;;9.69;100.00
64544;BME280;50936;51.660;5.616;2023-02-03T14:37:17;102350.94;;;9.65;100.00
64544;BME280;50936;51.660;5.616;2023-02-03T14:52:18;102382.09;;;9.52;100.00
64544;BME280;50936;51.660;5.616;2023-02-03T14:57:50;102370.31;;;9.54;100.00
64544;BME280;50936;51.660;5.616;2023-02-03T15:11:31;102371.94;;;9.58;100.00
64544;BME280;50936;51.660;5.616;2023-02-03T15:17:00;102371.94;;;9.58;100.00
64544;BME280;50936;51.660;5.616;2023-02-03T15:19:34;102380.94;;;9.57;100.00
64544;BME280;50936;51.660;5.616;2023-02-03T15:22:27;102382.84;;;9.55;100.00
64544;BME280;50936;51.660;5.616;2023-02-03T15:24:58;102386.41;;;9.56;100.00
64544;BME280;50936;51.660;5.616;2023-02-03T15:27:31;102379.31;;;9.53;100.00
64544;BME280;50936;51.660;5.616;2023-02-03T15:30:13;102383.78;;;9.54;100.00
64544;BME280;50936;51.660;5.616;2023-02-03T15:33:05;102392.81;;;9.53;100.00
64544;BME280;50936;51.660;5.616;2023-02-03T15:35:38;102383.78;;;9.54;100.00
64544;BME280;50936;51.660;5.616;2023-02-03T15:38:41;102400.03;;;9.53;100.00
64544;BME280;50936;51.660;5.616;2023-02-03T15:41:21;102392.00;;;9.51;100.00
64544;BME280;50936;51.660;5.616;2023-02-03T15:44:18;102394.75;;;9.50;100.00
64544;BME280;50936;51.660;5.616;2023-02-03T15:46:56;102401.91;;;9.51;100.00